Time;durP1;ratioP1;P1;durP2;ratioP2;P2;SDS_P1;SDS_P2;PMS_P1;PMS_P2;Temp;Humidity;BMP_temperature;BMP_pressure;BME280_temperature;BME280_humidity;BME280_pressure;Samples;Min_cycle;Max_cycle;Signal;HPM_P1;HPM_P2
2021/12/05 00:22:10;;;;;;;17.10;6.82;;;4.70;99.90;;;;;;5003094;28;20056;-59
2021/12/05 00:24:40;;;;;;;9.20;4.63;;;4.70;99.90;;;;;;4998289;28;20485;-59
2021/12/05 00:27:18;;;;;;;7.40;4.28;;;4.70;99.90;;;;;;5007574;28;20509;-58
2021/12/05 00:49:16;;;;;;;14.45;6.03;;;4.60;99.90;;;;;;4990491;28;20129;-57
2021/12/05 01:00:13;;;;;;;13.75;4.82;;;4.60;99.90;;;;;;4995091;23;20086;-65
2021/12/05 01:02:59;;;;;;;13.70;5.97;;;4.70;99.90;;;;;;5035598;28;20113;-63
2021/12/05 01:15:28;;;;;;;16.63;4.65;;;4.80;99.90;;;;;;5044128;28;20114;-63
2021/12/05 01:18:04;;;;;;;10.63;4.00;;;4.80;99.90;;;;;;5037499;28;20127;-63
2021/12/05 01:20:36;;;;;;;11.70;4.95;;;4.80;99.90;;;;;;5023865;28;20101;-63
2021/12/05 01:23:09;;;;;;;9.13;4.20;;;4.90;99.90;;;;;;5030159;28;20063;-63
2021/12/05 01:28:28;;;;;;;15.57;5.22;;;4.90;99.90;;;;;;5027195;28;20044;-63
2021/12/05 01:33:34;;;;;;;12.75;4.53;;;4.90;99.90;;;;;;5028932;28;20080;-63
2021/12/05 01:41:44;;;;;;;12.35;5.65;;;4.90;99.90;;;;;;5028849;28;20349;-64
2021/12/05 01:47:28;;;;;;;12.18;5.07;;;4.80;99.90;;;;;;5023213;28;21288;-62
2021/12/05 01:53:03;;;;;;;12.52;3.97;;;4.80;99.90;;;;;;5030206;28;20052;-64
2021/12/05 01:58:12;;;;;;;11.35;4.53;;;4.70;99.90;;;;;;5026976;28;20045;-63
2021/12/05 02:01:13;;;;;;;10.85;4.55;;;4.70;99.90;;;;;;5028550;28;20395;-62
2021/12/05 02:33:58;;;;;;;16.75;6.90;;;4.70;99.90;;;;;;5021180;28;20352;-65
2021/12/05 02:41:40;;;;;;;16.50;7.50;;;4.70;99.90;;;;;;5037947;28;20041;-64
2021/12/05 02:44:23;;;;;;;18.13;6.82;;;4.60;99.90;;;;;;5038350;28;20120;-65
2021/12/05 02:47:03;;;;;;;14.63;7.57;;;4.60;99.90;;;;;;5023403;28;20071;-64
2021/12/05 02:49:31;;;;;;;12.05;7.20;;;4.60;99.90;;;;;;5037919;28;20037;-64
2021/12/05 02:52:02;;;;;;;14.75;7.72;;;4.60;99.90;;;;;;5032112;28;20379;-64
2021/12/05 02:54:33;;;;;;;17.52;9.00;;;4.60;99.90;;;;;;5028520;28;20797;-64
2021/12/05 02:57:00;;;;;;;20.80;8.75;;;4.60;99.90;;;;;;5035547;28;20036;-64
2021/12/05 03:02:12;;;;;;;15.23;8.23;;;4.50;99.90;;;;;;5031007;28;20047;-64
2021/12/05 03:04:41;;;;;;;20.15;8.65;;;4.50;99.90;;;;;;5036239;28;20230;-64
2021/12/05 03:07:09;;;;;;;16.73;8.15;;;4.50;99.90;;;;;;5038067;28;20032;-64
2021/12/05 03:09:36;;;;;;;14.15;7.47;;;4.50;99.90;;;;;;5013772;28;20407;-64
2021/12/05 03:12:09;;;;;;;15.48;7.90;;;4.50;99.90;;;;;;5021440;28;20051;-64
2021/12/05 03:14:36;;;;;;;13.52;7.35;;;4.50;99.90;;;;;;5038916;28;20048;-64
2021/12/05 03:17:02;;;;;;;21.77;9.50;;;4.50;99.90;;;;;;5019164;28;20073;-64
2021/12/05 03:19:28;;;;;;;16.75;8.02;;;4.50;99.90;;;;;;5031009;28;20297;-64
2021/12/05 03:21:54;;;;;;;17.83;9.00;;;4.60;99.90;;;;;;5037631;28;20068;-64
2021/12/05 03:24:21;;;;;;;17.00;8.85;;;4.60;99.90;;;;;;5033041;28;20042;-63
2021/12/05 03:26:50;;;;;;;19.23;8.40;;;4.50;99.90;;;;;;5028642;28;20037;-64
2021/12/05 03:29:18;;;;;;;14.98;7.63;;;4.60;99.90;;;;;;5038231;28;20499;-64
2021/12/05 03:31:44;;;;;;;18.42;8.23;;;4.60;99.90;;;;;;5019577;28;20051;-63
2021/12/05 03:34:14;;;;;;;21.50;8.75;;;4.50;99.90;;;;;;5038386;28;20064;-65
2021/12/05 03:36:45;;;;;;;15.13;8.32;;;4.50;99.90;;;;;;5027220;28;20406;-64
2021/12/05 03:39:13;;;;;;;19.08;8.73;;;4.50;99.90;;;;;;5049450;28;20414;-64
2021/12/05 03:41:40;;;;;;;21.00;8.68;;;4.50;99.90;;;;;;5035894;28;20041;-64
2021/12/05 03:44:09;;;;;;;15.93;8.40;;;4.50;99.90;;;;;;5024048;28;20036;-65
2021/12/05 03:46:35;;;;;;;18.02;8.55;;;4.50;99.90;;;;;;5040279;28;20114;-65
2021/12/05 03:49:06;;;;;;;18.58;9.13;;;4.50;99.90;;;;;;5005611;28;20048;-64
2021/12/05 03:51:34;;;;;;;24.42;9.77;;;4.50;99.90;;;;;;5025358;28;20071;-64
2021/12/05 03:54:00;;;;;;;22.50;9.13;;;4.50;99.90;;;;;;5037805;28;20149;-64
2021/12/05 03:56:26;;;;;;;19.70;9.57;;;4.40;99.90;;;;;;5013635;28;20131;-65
2021/12/05 03:58:53;;;;;;;21.45;9.18;;;4.40;99.90;;;;;;5034031;28;20123;-64
2021/12/05 04:01:21;;;;;;;23.55;9.82;;;4.50;99.90;;;;;;5037437;28;20037;-64
2021/12/05 04:03:48;;;;;;;22.70;10.32;;;4.40;99.90;;;;;;5039615;28;20041;-64
2021/12/05 04:06:18;;;;;;;26.27;10.60;;;4.40;99.90;;;;;;5037251;28;20050;-64
2021/12/05 04:08:45;;;;;;;23.20;10.65;;;4.50;99.90;;;;;;5025219;28;20488;-65
2021/12/05 04:11:17;;;;;;;26.75;10.88;;;4.40;99.90;;;;;;5033552;28;20337;-64
2021/12/05 04:13:43;;;;;;;21.23;10.00;;;4.40;99.90;;;;;;5035673;28;20076;-64
2021/12/05 04:16:09;;;;;;;21.42;9.77;;;4.40;99.90;;;;;;5049343;28;20170;-64
2021/12/05 04:18:37;;;;;;;23.30;9.98;;;4.40;99.90;;;;;;5024469;28;20139;-64
2021/12/05 04:21:03;;;;;;;24.17;11.80;;;4.40;99.90;;;;;;5042340;28;20506;-64
2021/12/05 04:23:29;;;;;;;19.92;9.68;;;4.40;99.90;;;;;;5030635;28;20068;-64
2021/12/05 04:25:55;;;;;;;23.95;9.65;;;4.30;99.90;;;;;;5040786;28;20098;-64
2021/12/05 04:28:22;;;;;;;21.42;10.93;;;4.30;99.90;;;;;;5043570;28;20041;-64
2021/12/05 04:30:49;;;;;;;20.60;10.18;;;4.30;99.90;;;;;;5040110;28;20072;-63
2021/12/05 04:33:15;;;;;;;18.67;9.52;;;4.20;99.90;;;;;;5023590;28;20041;-63
2021/12/05 04:35:41;;;;;;;26.17;11.43;;;4.30;99.90;;;;;;4997748;28;20059;-63
2021/12/05 04:38:07;;;;;;;22.00;10.30;;;4.30;99.90;;;;;;5041489;28;20051;-63
2021/12/05 04:40:33;;;;;;;24.05;10.65;;;4.20;99.90;;;;;;5034466;28;20037;-63
2021/12/05 04:43:01;;;;;;;20.55;10.90;;;4.20;99.90;;;;;;5038825;28;20048;-64
2021/12/05 04:45:30;;;;;;;25.48;10.48;;;4.20;99.90;;;;;;5036533;28;20935;-65
2021/12/05 04:47:57;;;;;;;19.40;11.50;;;4.20;99.90;;;;;;5025858;28;20048;-64
2021/12/05 04:50:24;;;;;;;21.77;10.98;;;4.20;99.90;;;;;;5036405;28;20048;-65
2021/12/05 04:52:51;;;;;;;26.95;12.23;;;4.20;99.90;;;;;;5020364;28;20046;-65
2021/12/05 04:55:18;;;;;;;27.73;12.40;;;4.00;99.90;;;;;;5033885;28;20480;-64
2021/12/05 04:57:45;;;;;;;30.70;12.57;;;4.20;99.90;;;;;;5048644;28;20048;-64
2021/12/05 05:00:44;;;;;;;23.90;11.85;;;4.10;99.90;;;;;;5033322;28;20461;-65
2021/12/05 05:03:11;;;;;;;28.85;12.55;;;4.10;99.90;;;;;;5039081;28;20052;-64
2021/12/05 05:05:41;;;;;;;24.88;12.68;;;4.10;99.90;;;;;;5038539;28;20537;-64
2021/12/05 05:08:07;;;;;;;28.15;15.52;;;4.10;99.90;;;;;;5027895;28;20029;-64
2021/12/05 05:10:34;;;;;;;31.88;14.65;;;4.10;99.90;;;;;;5053292;28;20530;-64
2021/12/05 05:13:00;;;;;;;30.50;13.57;;;4.20;99.90;;;;;;5039135;28;20492;-65
2021/12/05 05:15:30;;;;;;;27.80;13.35;;;4.10;99.90;;;;;;5036244;28;20090;-64
2021/12/05 05:17:57;;;;;;;32.85;13.43;;;4.10;99.90;;;;;;5038313;28;20050;-64
2021/12/05 05:39:31;;;;;;;29.85;14.07;;;4.10;99.90;;;;;;5037801;28;20048;-63
2021/12/05 05:42:33;;;;;;;;;;;4.20;99.90;;;;;;5037158;28;20094;-63
2021/12/05 05:47:51;;;;;;;;;;;4.10;99.90;;;;;;5035672;28;20044;-64
2021/12/05 05:50:20;;;;;;;31.40;14.55;;;4.00;99.90;;;;;;5034625;28;20363;-62
2021/12/05 05:52:46;;;;;;;25.25;13.23;;;4.00;99.90;;;;;;5035129;28;20040;-63
2021/12/05 05:55:12;;;;;;;24.08;13.52;;;4.10;99.90;;;;;;5023224;28;20063;-63
2021/12/05 05:57:44;;;;;;;24.73;12.13;;;4.00;99.90;;;;;;5034954;28;20075;-62
2021/12/05 06:00:17;;;;;;;27.15;13.20;;;4.00;99.90;;;;;;5036661;28;20407;-63
2021/12/05 06:05:33;;;;;;;30.15;13.48;;;4.00;99.90;;;;;;5034776;28;20565;-64
2021/12/05 06:07:58;;;;;;;26.27;11.73;;;4.00;99.90;;;;;;5056475;28;20044;-64
2021/12/05 06:10:26;;;;;;;34.15;14.30;;;4.00;99.90;;;;;;5023273;28;20317;-64
2021/12/05 06:12:52;;;;;;;29.40;12.65;;;4.00;99.90;;;;;;5042172;28;20247;-64
2021/12/05 06:15:20;;;;;;;27.75;13.10;;;4.00;99.90;;;;;;5030693;28;20279;-64
2021/12/05 06:17:46;;;;;;;26.52;13.82;;;4.00;99.90;;;;;;5032015;28;20068;-64
2021/12/05 06:20:16;;;;;;;26.20;14.38;;;4.00;99.90;;;;;;5035455;28;20071;-64
2021/12/05 06:22:45;;;;;;;19.85;10.40;;;4.10;99.90;;;;;;5019041;28;20047;-65
2021/12/05 06:25:18;;;;;;;24.98;10.77;;;4.00;99.90;;;;;;5027716;28;20431;-64
2021/12/05 06:27:44;;;;;;;34.85;13.00;;;4.00;99.90;;;;;;5034056;28;20932;-64
2021/12/05 06:30:16;;;;;;;25.88;12.88;;;4.00;99.90;;;;;;5021819;28;20185;-64
2021/12/05 06:38:11;;;;;;;28.65;12.38;;;4.00;99.90;;;;;;5043038;28;20503;-64
2021/12/05 06:46:25;;;;;;;24.58;11.65;;;4.00;99.90;;;;;;4956593;28;20174;-64
2021/12/05 06:48:50;;;;;;;25.38;11.15;;;4.10;99.90;;;;;;4988975;28;21353;-63
2021/12/05 06:51:19;;;;;;;24.05;10.70;;;4.10;99.90;;;;;;5017168;28;20041;-63
2021/12/05 06:53:45;;;;;;;23.13;12.18;;;4.10;99.90;;;;;;5022396;28;20040;-62
2021/12/05 06:56:11;;;;;;;19.73;9.35;;;4.10;99.90;;;;;;5037133;28;20399;-63
2021/12/05 06:58:37;;;;;;;27.27;12.25;;;4.10;99.90;;;;;;5030404;28;20052;-63
2021/12/05 07:01:07;;;;;;;19.77;10.32;;;4.10;99.90;;;;;;5044840;23;20496;-68
2021/12/05 07:03:34;;;;;;;20.33;10.75;;;4.10;99.90;;;;;;5019733;28;20098;-66
2021/12/05 07:06:07;;;;;;;24.55;10.52;;;4.10;99.90;;;;;;5025291;28;20038;-66
2021/12/05 07:08:36;;;;;;;23.13;11.13;;;4.10;99.90;;;;;;5016770;28;20069;-66
2021/12/05 07:11:12;;;;;;;20.38;10.40;;;4.10;99.90;;;;;;5023938;28;20045;-67
2021/12/05 07:16:43;;;;;;;26.10;11.07;;;4.10;99.90;;;;;;5014811;28;20045;-66
2021/12/05 07:22:01;;;;;;;20.48;10.02;;;4.10;99.90;;;;;;5009947;28;20501;-66
2021/12/05 07:24:41;;;;;;;26.20;10.30;;;4.10;99.90;;;;;;5017089;28;20052;-66
2021/12/05 07:43:40;;;;;;;20.40;9.57;;;4.00;99.90;;;;;;5008316;28;19931;-68
2021/12/05 07:46:07;;;;;;;26.35;9.15;;;4.00;99.90;;;;;;5012749;28;20045;-68
2021/12/05 07:48:37;;;;;;;25.80;10.00;;;4.00;99.90;;;;;;5006958;28;20113;-67
2021/12/05 07:51:14;;;;;;;20.63;9.65;;;4.10;99.90;;;;;;5010310;28;20037;-66
2021/12/05 07:53:50;;;;;;;24.17;10.57;;;4.10;99.90;;;;;;4992339;28;20754;-69
2021/12/05 07:56:31;;;;;;;24.85;9.60;;;4.10;99.90;;;;;;5017730;28;20037;-66
2021/12/05 07:59:09;;;;;;;27.00;9.60;;;4.10;99.90;;;;;;5019092;28;20137;-66
2021/12/05 08:15:22;;;;;;;28.75;10.45;;;4.20;99.90;;;;;;5032154;28;20466;-68
2021/12/05 08:17:52;;;;;;;17.60;9.10;;;4.20;99.90;;;;;;5017885;28;20037;-67
2021/12/05 08:20:20;;;;;;;20.70;9.27;;;4.20;99.90;;;;;;5013680;28;20052;-68
2021/12/05 08:22:46;;;;;;;19.85;8.45;;;4.20;99.90;;;;;;5021099;28;20047;-66
2021/12/05 08:25:14;;;;;;;16.83;8.45;;;4.30;99.90;;;;;;5014868;28;20040;-68
2021/12/05 08:27:46;;;;;;;27.67;11.30;;;4.30;99.90;;;;;;5010951;28;20102;-67
2021/12/05 08:30:18;;;;;;;24.88;11.05;;;4.30;99.90;;;;;;5015575;28;20037;-68
2021/12/05 08:32:58;;;;;;;20.63;9.73;;;4.30;99.90;;;;;;5014265;28;20059;-66
2021/12/05 08:43:41;;;;;;;21.63;10.05;;;4.40;99.90;;;;;;5011609;28;20040;-67
2021/12/05 09:29:20;;;;;;;20.73;11.25;;;4.80;99.90;;;;;;5010973;28;20061;-66
2021/12/05 10:15:30;;;;;;;21.58;12.02;;;4.90;99.90;;;;;;5007602;28;20052;-66
2021/12/05 10:38:11;;;;;;;27.05;12.48;;;5.00;99.90;;;;;;5012640;28;20411;-69
2021/12/05 10:40:48;;;;;;;;;;;5.00;99.90;;;;;;5011977;28;20286;-67
2021/12/05 10:43:20;;;;;;;20.05;10.75;;;5.00;99.90;;;;;;5016636;28;19942;-69
2021/12/05 10:45:49;;;;;;;24.55;11.98;;;5.00;99.90;;;;;;5017875;28;20033;-65
2021/12/05 10:48:25;;;;;;;19.27;11.18;;;5.00;99.90;;;;;;5004483;28;20046;-69
2021/12/05 10:50:57;;;;;;;18.10;11.73;;;5.00;99.90;;;;;;5015345;28;20106;-66
2021/12/05 10:53:34;;;;;;;22.30;11.75;;;5.10;99.90;;;;;;5005323;28;20043;-66
2021/12/05 10:56:06;;;;;;;23.60;12.60;;;5.00;99.90;;;;;;5007138;28;20127;-65
2021/12/05 10:58:47;;;;;;;21.70;11.90;;;5.10;99.90;;;;;;5024575;28;20375;-69
2021/12/05 11:01:18;;;;;;;23.58;12.48;;;5.00;99.90;;;;;;5013264;28;20073;-66
2021/12/05 11:03:45;;;;;;;30.27;13.73;;;5.00;99.90;;;;;;5020848;28;20383;-66
2021/12/05 11:06:21;;;;;;;21.15;12.23;;;5.10;99.90;;;;;;5019669;28;20074;-68
2021/12/05 11:09:01;;;;;;;23.40;12.18;;;5.10;99.90;;;;;;5003197;28;20376;-68
2021/12/05 11:11:27;;;;;;;24.55;12.82;;;5.10;99.90;;;;;;5018021;28;20102;-68
2021/12/05 11:13:54;;;;;;;23.80;12.60;;;5.10;99.90;;;;;;5029753;28;20045;-67
2021/12/05 11:16:40;;;;;;;21.45;12.65;;;5.10;99.90;;;;;;5015018;28;20037;-67
2021/12/05 11:19:18;;;;;;;22.95;12.38;;;5.00;99.90;;;;;;5018468;28;20064;-66
2021/12/05 11:21:47;;;;;;;26.27;12.68;;;5.00;99.90;;;;;;5020890;28;20045;-65
2021/12/05 11:24:35;;;;;;;23.95;13.40;;;5.00;99.90;;;;;;5010122;28;20030;-65
2021/12/05 11:27:18;;;;;;;21.20;11.55;;;5.00;99.90;;;;;;5000265;28;20041;-66
2021/12/05 11:29:52;;;;;;;19.98;11.35;;;5.00;99.90;;;;;;5016324;28;20095;-66
2021/12/05 11:32:30;;;;;;;22.15;11.98;;;5.00;99.90;;;;;;5020819;28;20041;-68
2021/12/05 11:34:56;;;;;;;30.00;18.33;;;5.00;99.90;;;;;;5034657;28;20531;-65
2021/12/05 11:37:22;;;;;;;20.17;12.50;;;5.00;99.90;;;;;;5022588;28;20124;-65
2021/12/05 11:39:48;;;;;;;20.08;11.80;;;5.00;99.90;;;;;;4999891;28;20352;-68
2021/12/05 11:42:17;;;;;;;21.60;12.43;;;5.00;99.90;;;;;;5016684;28;20041;-66
2021/12/05 11:44:46;;;;;;;25.48;12.40;;;5.00;99.90;;;;;;5021893;28;20040;-65
2021/12/05 11:47:18;;;;;;;26.75;13.15;;;5.00;99.90;;;;;;5019540;28;20387;-65
2021/12/05 11:49:44;;;;;;;23.52;12.23;;;5.00;99.90;;;;;;5028323;28;20383;-66
2021/12/05 11:52:11;;;;;;;27.48;13.25;;;5.00;99.90;;;;;;5013255;28;20120;-68
2021/12/05 11:54:41;;;;;;;20.83;12.52;;;5.00;99.90;;;;;;5025248;28;20045;-64
2021/12/05 11:57:17;;;;;;;22.10;12.68;;;4.90;99.90;;;;;;5003943;28;20086;-65
2021/12/05 11:59:56;;;;;;;20.63;11.75;;;5.00;99.90;;;;;;5012685;28;20085;-67
2021/12/05 12:02:33;;;;;;;23.38;12.15;;;5.00;99.90;;;;;;5029936;28;20557;-66
2021/12/05 12:05:13;;;;;;;19.63;12.45;;;4.90;99.90;;;;;;5018963;28;20363;-64
2021/12/05 12:07:52;;;;;;;26.50;13.65;;;5.00;99.90;;;;;;5013081;28;20047;-65
2021/12/05 12:10:20;;;;;;;23.77;12.68;;;4.90;99.90;;;;;;5019073;28;20041;-64
2021/12/05 12:13:11;;;;;;;21.70;13.57;;;4.90;99.90;;;;;;5005987;28;20042;-65
2021/12/05 12:15:39;;;;;;;21.80;12.27;;;5.00;99.90;;;;;;5022127;28;20419;-63
2021/12/05 12:18:15;;;;;;;21.13;12.88;;;4.90;99.90;;;;;;5026303;28;20545;-67
2021/12/05 12:20:45;;;;;;;24.08;13.20;;;5.00;99.90;;;;;;5017901;28;20048;-66
2021/12/05 12:23:12;;;;;;;23.90;12.05;;;4.90;99.90;;;;;;4997944;28;20049;-67
2021/12/05 12:25:40;;;;;;;21.33;10.95;;;5.00;99.90;;;;;;5012342;28;21237;-65
2021/12/05 12:28:09;;;;;;;22.35;12.32;;;5.00;99.90;;;;;;5033834;28;20070;-65
2021/12/05 12:30:41;;;;;;;25.35;11.25;;;5.00;99.90;;;;;;5013268;28;20190;-65
2021/12/05 12:33:13;;;;;;;26.33;12.13;;;5.00;99.90;;;;;;5007355;28;20372;-66
2021/12/05 12:35:43;;;;;;;20.98;11.13;;;5.00;99.90;;;;;;5020099;28;20041;-67
2021/12/05 12:38:16;;;;;;;22.63;13.45;;;5.00;99.90;;;;;;5022686;28;20137;-65
2021/12/05 12:40:51;;;;;;;20.30;11.38;;;5.00;99.90;;;;;;5013031;28;20446;-65
2021/12/05 12:43:41;;;;;;;20.63;10.52;;;5.00;99.90;;;;;;5031198;28;20505;-67
2021/12/05 12:46:40;;;;;;;23.80;11.57;;;5.10;99.90;;;;;;5023882;28;20479;-67
2021/12/05 12:49:15;;;;;;;19.70;11.45;;;5.10;99.90;;;;;;5020848;28;20045;-65
2021/12/05 12:51:46;;;;;;;21.08;11.45;;;5.10;99.90;;;;;;5029915;28;20049;-66
2021/12/05 12:54:23;;;;;;;21.85;10.93;;;5.10;99.90;;;;;;5022668;28;20051;-65
2021/12/05 12:57:12;;;;;;;22.00;11.65;;;5.20;99.90;;;;;;5015302;28;20128;-65
2021/12/05 12:59:46;;;;;;;25.42;11.82;;;5.20;99.90;;;;;;5040872;28;20048;-66
2021/12/05 13:10:26;;;;;;;19.42;10.13;;;5.40;99.90;;;;;;5027706;28;20037;-84
2021/12/05 13:13:53;;;;;;;22.40;11.30;;;5.30;99.90;;;;;;5020854;28;20057;-84
2021/12/05 13:16:31;;;;;;;16.40;9.45;;;5.30;99.90;;;;;;4995444;28;20050;-83
2021/12/05 13:19:09;;;;;;;24.70;11.18;;;5.30;99.90;;;;;;5001338;28;20423;-82
2021/12/05 13:21:43;;;;;;;21.92;9.98;;;5.20;99.90;;;;;;5027552;28;20131;-82
2021/12/05 13:24:17;;;;;;;;;;;5.20;99.90;;;;;;5009642;28;20497;-82
2021/12/05 13:27:05;;;;;;;16.05;9.45;;;5.30;99.90;;;;;;5028450;28;20000;-82
2021/12/05 13:29:51;;;;;;;18.00;9.15;;;5.30;99.90;;;;;;5028338;28;20096;-82
2021/12/05 13:32:24;;;;;;;21.10;9.88;;;5.20;99.90;;;;;;5028137;28;20042;-83
2021/12/05 13:34:54;;;;;;;25.42;10.25;;;5.40;99.90;;;;;;5033281;28;20053;-83
2021/12/05 13:37:24;;;;;;;18.15;9.13;;;5.30;99.90;;;;;;5034168;28;20559;-84
2021/12/05 13:39:55;;;;;;;15.52;9.15;;;5.20;99.90;;;;;;5016294;28;20052;-83
2021/12/05 13:42:47;;;;;;;16.75;9.07;;;5.30;99.90;;;;;;5019254;28;20037;-84
2021/12/05 13:45:42;;;;;;;20.10;10.13;;;5.60;99.90;;;;;;5018389;28;20436;-82
2021/12/05 13:48:18;;;;;;;14.77;8.38;;;5.70;99.90;;;;;;5035943;28;20053;-83
2021/12/05 13:51:01;;;;;;;16.63;9.05;;;5.40;99.90;;;;;;5014371;28;20208;-82
2021/12/05 13:53:31;;;;;;;28.08;14.63;;;5.40;99.90;;;;;;5030163;28;20043;-83
2021/12/05 13:56:08;;;;;;;36.30;18.92;;;5.40;99.90;;;;;;5031786;28;20049;-83
2021/12/05 13:58:34;;;;;;;27.75;12.77;;;5.40;99.90;;;;;;5020211;28;20073;-83
2021/12/05 14:01:06;;;;;;;33.22;16.92;;;5.40;99.90;;;;;;5012894;28;20061;-83
2021/12/05 14:03:54;;;;;;;20.73;12.73;;;5.50;99.90;;;;;;5027463;28;20040;-83
2021/12/05 14:06:23;;;;;;;21.90;11.98;;;5.40;99.90;;;;;;5014893;28;20083;-83
2021/12/05 14:08:49;;;;;;;18.27;11.18;;;5.40;99.90;;;;;;5029289;28;20037;-83
2021/12/05 14:11:15;;;;;;;22.67;12.35;;;5.80;99.90;;;;;;5022212;28;20045;-86
2021/12/05 14:13:41;;;;;;;18.48;10.77;;;5.50;99.90;;;;;;5009912;28;20099;-85
2021/12/05 14:16:07;;;;;;;17.80;9.57;;;5.70;99.90;;;;;;5012775;28;20041;-84
2021/12/05 14:18:33;;;;;;;15.13;9.63;;;5.40;99.90;;;;;;5013676;28;20048;-86
2021/12/05 14:21:18;;;;;;;19.38;10.13;;;5.40;99.90;;;;;;5025983;28;20037;-86
2021/12/05 14:23:50;;;;;;;22.05;10.00;;;5.90;99.90;;;;;;5037254;28;20052;-83
2021/12/05 14:26:17;;;;;;;16.45;9.73;;;5.30;99.90;;;;;;5009147;28;20050;-84
2021/12/05 14:28:59;;;;;;;18.30;10.88;;;5.50;99.90;;;;;;5023253;28;20037;-84
2021/12/05 14:31:27;;;;;;;15.80;9.32;;;5.90;99.90;;;;;;5020711;28;20041;-85
2021/12/05 14:34:03;;;;;;;17.65;9.55;;;5.40;99.90;;;;;;5006241;28;20037;-85
2021/12/05 14:36:38;;;;;;;17.73;9.80;;;5.40;99.90;;;;;;5009905;28;20053;-86
2021/12/05 14:39:18;;;;;;;20.48;9.88;;;5.60;99.90;;;;;;5024341;28;20047;-83
2021/12/05 14:41:46;;;;;;;15.30;8.80;;;5.40;99.90;;;;;;5019806;28;20044;-87
2021/12/05 14:44:23;;;;;;;15.20;10.30;;;5.60;99.90;;;;;;5009111;28;20040;-88
2021/12/05 14:46:53;;;;;;;;;;;5.60;99.90;;;;;;5008924;28;20037;-87
2021/12/05 14:49:22;;;;;;;19.23;10.25;;;5.60;99.90;;;;;;5025347;28;19928;-84
2021/12/05 14:51:54;;;;;;;17.83;10.75;;;5.50;99.90;;;;;;4999192;28;20063;-84
2021/12/05 14:54:36;;;;;;;18.90;10.48;;;5.40;99.90;;;;;;5017366;28;20391;-86
2021/12/05 14:57:19;;;;;;;18.45;11.02;;;5.40;99.90;;;;;;5006094;28;20053;-87
2021/12/05 14:59:50;;;;;;;17.42;9.98;;;5.40;99.90;;;;;;5028292;28;20582;-85
2021/12/05 15:02:17;;;;;;;19.83;11.40;;;5.50;99.90;;;;;;5010182;28;20048;-89
2021/12/05 15:04:48;;;;;;;17.42;10.77;;;6.00;99.90;;;;;;5006642;28;20482;-85
2021/12/05 15:07:16;;;;;;;21.98;11.18;;;5.40;99.90;;;;;;5022205;28;20044;-86
2021/12/05 15:10:08;;;;;;;18.27;11.90;;;5.50;99.90;;;;;;5006531;28;20040;-89
2021/12/05 15:12:38;;;;;;;24.27;12.50;;;4.70;99.90;;;;;;5007011;28;20052;-87
2021/12/05 15:15:10;;;;;;;17.13;9.95;;;5.40;99.90;;;;;;5006375;28;20524;-85
2021/12/05 15:17:40;;;;;;;17.77;10.70;;;5.30;99.90;;;;;;5021884;28;20048;-86
2021/12/05 15:20:20;;;;;;;18.15;10.68;;;5.40;99.90;;;;;;5005722;28;20056;-87
2021/12/05 15:22:54;;;;;;;20.83;11.13;;;5.80;99.90;;;;;;5012356;28;20140;-86
2021/12/05 15:25:21;;;;;;;;;;;5.80;99.90;;;;;;5008245;28;20053;-83
2021/12/05 15:27:48;;;;;;;17.13;10.80;;;5.80;99.90;;;;;;5007672;28;19951;-86
2021/12/05 15:30:16;;;;;;;26.73;12.05;;;6.10;99.90;;;;;;5009910;28;20087;-86
2021/12/05 15:32:43;;;;;;;24.58;11.18;;;6.00;99.90;;;;;;5027047;28;20199;-85
2021/12/05 15:35:13;;;;;;;19.23;12.02;;;5.90;99.90;;;;;;5009279;28;20545;-85
2021/12/05 15:37:51;;;;;;;23.23;12.82;;;5.40;99.90;;;;;;5020307;28;20049;-85
2021/12/05 15:40:23;;;;;;;20.25;11.38;;;5.40;99.90;;;;;;5005868;28;20124;-84
2021/12/05 15:42:49;;;;;;;17.60;12.20;;;5.40;99.90;;;;;;4990083;28;20114;-85
2021/12/05 15:45:18;;;;;;;21.90;12.18;;;5.40;99.90;;;;;;5025151;28;20402;-86
2021/12/05 15:47:49;;;;;;;18.33;12.15;;;5.40;99.90;;;;;;5015304;28;20071;-84
2021/12/05 15:50:25;;;;;;;17.20;11.52;;;5.50;99.90;;;;;;5011869;28;20152;-86
2021/12/05 15:52:57;;;;;;;17.83;11.05;;;6.00;99.90;;;;;;5010424;28;21114;-87
2021/12/05 15:55:34;;;;;;;21.42;12.70;;;5.40;99.90;;;;;;5007431;28;20847;-84
2021/12/05 15:58:07;;;;;;;23.35;11.30;;;5.40;99.90;;;;;;5007857;28;20042;-85
2021/12/05 16:01:26;;;;;;;17.73;10.60;;;5.30;99.90;;;;;;5011596;28;20456;-84
2021/12/05 16:03:58;;;;;;;26.88;14.85;;;5.30;99.90;;;;;;5000430;28;20058;-84
2021/12/05 16:06:39;;;;;;;25.00;14.23;;;5.30;99.90;;;;;;5024697;28;20050;-84
2021/12/05 16:12:26;;;;;;;23.98;12.75;;;5.30;99.90;;;;;;5062862;22;20051;-59
2021/12/05 16:14:56;;;;;;;21.92;13.00;;;5.30;99.90;;;;;;5029914;28;20403;-58
2021/12/05 16:17:25;;;;;;;21.60;13.38;;;5.30;99.90;;;;;;5030678;28;20492;-59
2021/12/05 16:20:12;;;;;;;29.40;14.45;;;5.30;99.90;;;;;;5020595;28;20631;-59
2021/12/05 16:23:20;;;;;;;24.10;12.65;;;5.30;99.90;;;;;;5033207;28;20045;-59
2021/12/05 16:26:01;;;;;;;22.05;13.85;;;5.30;99.90;;;;;;4944888;28;20051;-58
2021/12/05 16:28:32;;;;;;;27.90;14.82;;;5.30;99.90;;;;;;5020868;28;20404;-59
2021/12/05 16:31:06;;;;;;;23.38;14.70;;;5.30;99.90;;;;;;5038814;28;20048;-59
2021/12/05 16:33:34;;;;;;;23.58;13.55;;;5.30;99.90;;;;;;5033972;28;20047;-58
2021/12/05 16:36:00;;;;;;;28.70;14.32;;;5.30;99.90;;;;;;5032025;28;20036;-59
2021/12/05 16:38:51;;;;;;;25.23;13.75;;;5.30;99.90;;;;;;5023528;28;20542;-58
2021/12/05 16:41:27;;;;;;;33.13;14.98;;;5.30;99.90;;;;;;5047893;28;20113;-59
2021/12/05 16:44:03;;;;;;;27.23;14.48;;;5.30;99.90;;;;;;5021746;28;20041;-58
2021/12/05 16:46:36;;;;;;;28.30;14.55;;;5.30;99.90;;;;;;5032325;28;20122;-55
2021/12/05 16:49:07;;;;;;;28.98;14.88;;;5.30;99.90;;;;;;5041729;28;20142;-58
2021/12/05 16:51:35;;;;;;;28.42;16.00;;;5.30;99.90;;;;;;5039086;28;20297;-59
2021/12/05 16:54:17;;;;;;;26.08;15.00;;;5.30;99.90;;;;;;5039703;28;20066;-58
2021/12/05 16:56:59;;;;;;;28.63;16.10;;;5.30;99.90;;;;;;5032304;28;20040;-56
2021/12/05 16:59:41;;;;;;;26.80;13.98;;;5.20;99.90;;;;;;5036134;28;20403;-58
2021/12/05 17:02:27;;;;;;;33.08;14.88;;;5.20;99.90;;;;;;5009906;28;20367;-56
2021/12/05 17:12:39;;;;;;;35.40;17.08;;;5.20;99.90;;;;;;5597968;22;20057;-58
2021/12/05 17:15:15;;;;;;;30.20;17.05;;;5.20;99.90;;;;;;4969821;28;20370;-53
2021/12/05 17:17:44;;;;;;;30.98;17.00;;;5.20;99.90;;;;;;4982091;28;20046;-55
2021/12/05 17:20:29;;;;;;;31.23;17.08;;;5.20;99.90;;;;;;4980964;28;20198;-57
2021/12/05 17:22:59;;;;;;;31.70;17.20;;;5.20;99.90;;;;;;4974315;28;20064;-56
2021/12/05 17:25:42;;;;;;;32.92;16.63;;;5.10;99.90;;;;;;4958798;28;20393;-56
2021/12/05 17:28:18;;;;;;;28.67;17.60;;;5.20;99.90;;;;;;4967965;28;20139;-54
2021/12/05 17:30:56;;;;;;;28.73;16.02;;;5.10;99.90;;;;;;4977941;28;20053;-55
2021/12/05 17:33:33;;;;;;;29.02;17.90;;;5.10;99.90;;;;;;4965949;28;20096;-56
2021/12/05 17:36:18;;;;;;;31.10;17.73;;;5.20;99.90;;;;;;4984101;28;20085;-55
2021/12/05 17:38:45;;;;;;;29.98;18.05;;;5.20;99.90;;;;;;4979236;28;20445;-57
2021/12/05 17:41:11;;;;;;;31.83;17.50;;;5.10;99.90;;;;;;4978521;28;20147;-58
2021/12/05 17:43:37;;;;;;;29.58;17.20;;;5.10;99.90;;;;;;4996130;28;20089;-58
2021/12/05 17:46:04;;;;;;;28.85;17.73;;;5.00;99.90;;;;;;4976742;28;20046;-56
2021/12/05 17:48:30;;;;;;;31.52;19.05;;;5.00;99.90;;;;;;4978246;28;20400;-58
2021/12/05 17:50:57;;;;;;;30.50;17.52;;;5.00;99.90;;;;;;4995461;28;20045;-54
2021/12/05 17:53:29;;;;;;;27.63;16.25;;;5.00;99.90;;;;;;4975789;28;20132;-53
2021/12/05 17:56:02;;;;;;;25.13;16.58;;;5.00;99.90;;;;;;4980611;28;20037;-56
2021/12/05 17:58:53;;;;;;;24.77;14.82;;;5.00;99.90;;;;;;4978303;28;20084;-55
2021/12/05 18:04:05;;;;;;;22.17;14.25;;;4.90;99.90;;;;;;4977933;28;20045;-58
2021/12/05 18:06:32;;;;;;;34.50;17.33;;;4.90;99.90;;;;;;4965869;28;20065;-53
2021/12/05 18:08:58;;;;;;;27.83;17.55;;;4.90;99.90;;;;;;4980491;28;20037;-54
2021/12/05 18:11:24;;;;;;;28.30;16.77;;;4.90;99.90;;;;;;4953162;28;20049;-56
2021/12/05 18:13:56;;;;;;;26.45;16.55;;;4.80;99.90;;;;;;4973973;28;20056;-56
2021/12/05 18:16:24;;;;;;;32.08;19.23;;;4.80;99.90;;;;;;4973780;28;20430;-55
2021/12/05 18:19:05;;;;;;;27.50;18.13;;;4.80;99.90;;;;;;4984506;28;20147;-56
2021/12/05 18:21:37;;;;;;;24.73;16.60;;;4.80;99.90;;;;;;4999637;28;20042;-56
2021/12/05 18:24:06;;;;;;;34.38;19.30;;;4.80;99.90;;;;;;4985695;28;20046;-54
2021/12/05 18:26:33;;;;;;;30.45;17.38;;;4.80;99.90;;;;;;4959423;28;20046;-59
2021/12/05 18:28:59;;;;;;;33.92;19.08;;;4.80;99.90;;;;;;4975734;28;20045;-53
2021/12/05 18:31:31;;;;;;;35.03;21.33;;;4.80;99.90;;;;;;4971965;28;20042;-53
2021/12/05 18:34:05;;;;;;;30.98;18.80;;;4.80;99.90;;;;;;4977058;28;20511;-55